createdAt,value
2019-04-26T00:00:43.318Z,1.50
2019-04-26T00:03:12.094Z,1.40
2019-04-26T00:05:39.369Z,1.33
2019-04-26T00:08:07.074Z,1.47
2019-04-26T00:10:52.802Z,1.37
2019-04-26T00:13:30.562Z,1.30
2019-04-26T00:16:21.308Z,1.47
2019-04-26T00:18:48.659Z,1.80
2019-04-26T00:21:16.181Z,1.30
2019-04-26T00:23:43.975Z,1.80
2019-04-26T00:26:12.271Z,2.13
2019-04-26T00:28:40.530Z,1.80
2019-04-26T00:31:07.971Z,2.17
2019-04-26T00:33:35.465Z,1.80
2019-04-26T00:36:02.700Z,1.70
2019-04-26T00:38:30.443Z,1.33
2019-04-26T00:40:58.004Z,1.90
2019-04-26T00:43:25.815Z,1.80
2019-04-26T00:45:54.819Z,1.83
2019-04-26T00:48:23.103Z,1.60
2019-04-26T00:50:51.999Z,1.67
2019-04-26T00:53:20.210Z,1.50
2019-04-26T00:55:48.647Z,1.50
2019-04-26T00:58:16.466Z,1.60
2019-04-26T01:00:43.865Z,1.50
2019-04-26T01:03:11.039Z,1.33
2019-04-26T01:05:39.634Z,1.20
2019-04-26T01:08:07.105Z,1.20
2019-04-26T01:10:34.292Z,1.07
2019-04-26T01:13:01.770Z,1.60
2019-04-26T01:15:29.360Z,1.23
2019-04-26T01:17:56.570Z,1.40
2019-04-26T01:20:26.770Z,1.40
2019-04-26T01:22:57.956Z,1.73
2019-04-26T01:25:38.671Z,1.60
2019-04-26T01:28:08.385Z,1.50
2019-04-26T01:30:36.356Z,1.63
2019-04-26T01:33:04.060Z,1.40
2019-04-26T01:35:31.912Z,1.70
2019-04-26T01:38:01.263Z,2.17
2019-04-26T01:40:30.372Z,1.50
2019-04-26T01:43:26.427Z,1.30
2019-04-26T01:46:01.035Z,1.47
2019-04-26T01:48:48.166Z,1.43
2019-04-26T01:51:29.985Z,1.40
2019-04-26T01:53:57.134Z,1.00
2019-04-26T01:56:29.917Z,1.53
2019-04-26T01:58:57.087Z,1.57
2019-04-26T02:01:42.455Z,1.57
2019-04-26T02:04:10.148Z,1.47
2019-04-26T02:06:37.371Z,1.67
2019-04-26T02:09:08.011Z,1.50
2019-04-26T02:11:35.633Z,1.53
2019-04-26T02:14:03.109Z,1.43
2019-04-26T02:16:31.176Z,1.37
2019-04-26T02:18:58.608Z,1.03
2019-04-26T02:21:29.966Z,1.17
2019-04-26T02:24:08.815Z,1.10
2019-04-26T02:26:37.754Z,1.20
2019-04-26T02:29:11.777Z,1.27
2019-04-26T02:31:41.389Z,1.20
2019-04-26T02:34:09.126Z,1.20
2019-04-26T02:36:55.361Z,1.30
2019-04-26T02:39:18.025Z,1.20
2019-04-26T02:41:46.502Z,1.03
2019-04-26T02:44:16.645Z,1.53
2019-04-26T02:47:10.134Z,1.37
2019-04-26T02:49:42.224Z,1.30
2019-04-26T02:52:22.389Z,1.40
2019-04-26T02:55:01.304Z,1.90
2019-04-26T02:57:44.575Z,1.20
2019-04-26T03:00:13.056Z,1.83
2019-04-26T03:02:42.281Z,1.60
2019-04-26T03:05:10.142Z,1.50
2019-04-26T03:08:03.607Z,1.20
2019-04-26T03:10:40.376Z,1.37
2019-04-26T03:13:12.832Z,1.33
2019-04-26T03:16:10.922Z,1.10
2019-04-26T03:19:01.970Z,1.10
2019-04-26T03:21:39.401Z,1.30
2019-04-26T03:24:17.246Z,0.90
2019-04-26T03:27:11.047Z,1.50
2019-04-26T03:30:18.347Z,1.17
2019-04-26T03:32:58.259Z,1.30
2019-04-26T03:35:55.890Z,1.70
2019-04-26T03:38:41.452Z,1.47
2019-04-26T03:41:27.147Z,1.40
2019-04-26T03:44:17.040Z,1.23
2019-04-26T03:46:51.178Z,1.70
2019-04-26T03:49:48.129Z,1.23
2019-04-26T03:52:53.014Z,1.57
2019-04-26T03:56:04.102Z,1.53
2019-04-26T03:58:59.578Z,1.57
2019-04-26T04:01:30.554Z,1.73
2019-04-26T04:04:18.687Z,1.70
2019-04-26T04:07:02.689Z,1.50
2019-04-26T04:09:18.055Z,1.40
2019-04-26T04:12:09.700Z,1.60
2019-04-26T04:14:44.492Z,1.57
2019-04-26T04:17:33.726Z,1.93
2019-04-26T04:21:08.412Z,1.40
2019-04-26T04:23:56.526Z,1.40
2019-04-26T04:27:09.127Z,1.77
2019-04-26T04:29:54.714Z,1.83
2019-04-26T04:32:29.258Z,1.70
2019-04-26T04:35:00.423Z,1.60
2019-04-26T04:37:31.658Z,1.63
2019-04-26T04:40:20.804Z,1.33
2019-04-26T04:43:15.961Z,1.47
2019-04-26T04:46:11.394Z,3.33
2019-04-26T04:49:02.444Z,1.70
2019-04-26T04:51:42.874Z,1.27
2019-04-26T04:54:25.630Z,1.67
2019-04-26T04:57:08.020Z,1.63
2019-04-26T05:00:00.040Z,2.47
2019-04-26T05:03:03.082Z,1.87
2019-04-26T05:06:06.649Z,2.23
2019-04-26T05:08:39.551Z,2.17
2019-04-26T05:11:14.381Z,1.80
2019-04-26T05:14:03.474Z,1.90
2019-04-26T05:16:56.082Z,1.70
2019-04-26T05:19:47.073Z,2.80
2019-04-26T05:22:45.837Z,2.30
2019-04-26T05:26:05.314Z,2.30
2019-04-26T05:28:47.549Z,2.73
2019-04-26T05:31:30.144Z,2.40
2019-04-26T05:34:24.888Z,2.40
2019-04-26T05:37:17.253Z,3.70
2019-04-26T05:40:23.862Z,3.27
2019-04-26T05:43:42.242Z,3.33
2019-04-26T05:46:36.040Z,3.00
2019-04-26T05:49:22.810Z,3.00
2019-04-26T05:52:25.899Z,6.13
2019-04-26T05:55:56.017Z,4.23
2019-04-26T05:58:39.072Z,3.20
2019-04-26T06:01:42.758Z,2.37
2019-04-26T06:04:40.832Z,2.00
2019-04-26T06:07:35.842Z,1.77
2019-04-26T06:10:26.865Z,1.60
2019-04-26T06:13:27.239Z,2.00
2019-04-26T06:16:07.181Z,1.40
2019-04-26T06:19:06.774Z,1.50
2019-04-26T06:21:48.179Z,1.23
2019-04-26T06:24:33.787Z,0.90
2019-04-26T06:27:32.150Z,0.80
2019-04-26T06:30:06.800Z,1.00
2019-04-26T06:33:03.210Z,1.27
2019-04-26T06:35:26.555Z,1.00
2019-04-26T06:39:04.122Z,0.60
2019-04-26T06:42:29.979Z,0.90
2019-04-26T06:45:50.499Z,0.73
2019-04-26T06:48:28.081Z,0.80
2019-04-26T06:51:07.613Z,0.83
2019-04-26T06:53:51.391Z,0.50
2019-04-26T06:56:42.362Z,0.70
2019-04-26T06:59:36.569Z,0.50
2019-04-26T07:02:14.436Z,0.60
2019-04-26T07:05:18.808Z,0.70
2019-04-26T07:08:21.217Z,0.50
2019-04-26T07:11:00.673Z,0.60
2019-04-26T07:14:34.313Z,0.30
2019-04-26T07:17:07.795Z,0.40
2019-04-26T07:20:33.757Z,0.30
2019-04-26T07:23:50.337Z,0.40
2019-04-26T07:27:05.000Z,0.37
2019-04-26T07:29:50.816Z,0.30
2019-04-26T07:32:43.818Z,0.23
2019-04-26T07:35:30.286Z,0.40
2019-04-26T07:38:45.422Z,0.30
2019-04-26T07:41:43.389Z,0.40
2019-04-26T07:44:54.644Z,0.20
2019-04-26T07:48:15.201Z,0.30
2019-04-26T07:51:19.246Z,0.43
2019-04-26T07:54:39.363Z,0.40
2019-04-26T07:57:58.828Z,0.27
2019-04-26T08:00:45.154Z,0.70
2019-04-26T08:03:23.766Z,0.70
2019-04-26T08:06:01.474Z,0.60
2019-04-26T08:08:34.245Z,0.50
2019-04-26T08:11:10.877Z,0.30
2019-04-26T08:13:50.800Z,0.30
2019-04-26T08:16:46.289Z,0.30
2019-04-26T08:19:18.112Z,0.40
2019-04-26T08:21:48.028Z,0.30
2019-04-26T08:24:28.078Z,0.20
2019-04-26T08:27:23.691Z,0.30
2019-04-26T08:29:57.462Z,0.30
2019-04-26T08:32:32.077Z,0.30
2019-04-26T08:35:24.664Z,0.20
2019-04-26T08:37:57.487Z,0.30
2019-04-26T08:40:31.056Z,0.50
2019-04-26T08:43:10.878Z,0.23
2019-04-26T08:46:03.032Z,0.40
2019-04-26T08:48:35.514Z,0.60
2019-04-26T08:51:07.071Z,0.40
2019-04-26T08:53:38.253Z,0.57
2019-04-26T08:56:11.648Z,0.30
2019-04-26T08:58:41.483Z,0.50
2019-04-26T09:01:42.071Z,0.40
2019-04-26T09:04:18.221Z,0.40
2019-04-26T09:06:53.323Z,0.53
2019-04-26T09:09:25.137Z,0.40
2019-04-26T09:11:59.905Z,0.30
2019-04-26T09:14:28.151Z,0.47
2019-04-26T09:16:55.671Z,0.40
2019-04-26T09:19:26.284Z,0.30
2019-04-26T09:22:12.529Z,0.30
2019-04-26T09:24:39.712Z,0.60
2019-04-26T09:27:24.836Z,0.40
2019-04-26T09:30:05.142Z,0.30
2019-04-26T09:32:53.306Z,0.47
2019-04-26T09:35:20.728Z,0.80
2019-04-26T09:37:47.945Z,0.40
2019-04-26T09:40:21.539Z,0.47
2019-04-26T09:42:50.702Z,0.23
2019-04-26T09:45:48.098Z,0.30
2019-04-26T09:48:20.461Z,0.50
2019-04-26T09:50:49.360Z,0.50
2019-04-26T09:53:17.621Z,0.30
2019-04-26T09:55:44.912Z,0.60
2019-04-26T09:58:12.386Z,0.37
2019-04-26T10:00:39.790Z,0.50
2019-04-26T10:03:09.316Z,0.63
2019-04-26T10:05:37.392Z,1.10
2019-04-26T10:08:08.178Z,0.63
2019-04-26T10:10:35.383Z,0.40
2019-04-26T10:13:31.626Z,0.30
2019-04-26T10:16:17.146Z,0.70
2019-04-26T10:18:48.385Z,0.53
2019-04-26T10:21:15.764Z,0.70
2019-04-26T10:23:43.391Z,0.50
2019-04-26T10:26:10.769Z,0.43
2019-04-26T10:28:39.196Z,0.40
2019-04-26T10:31:06.585Z,0.70
2019-04-26T10:33:36.565Z,0.50
2019-04-26T10:36:03.079Z,0.50
2019-04-26T10:38:30.457Z,0.30
2019-04-26T10:40:57.834Z,0.50
2019-04-26T10:43:25.332Z,0.40
2019-04-26T10:45:53.957Z,0.40
2019-04-26T10:48:23.242Z,0.20
2019-04-26T10:50:50.774Z,0.20
2019-04-26T10:53:35.406Z,0.20
2019-04-26T10:56:24.310Z,0.13
2019-04-26T10:59:12.948Z,0.20
2019-04-26T11:01:40.592Z,0.60
2019-04-26T11:04:08.089Z,0.30
2019-04-26T11:06:35.380Z,0.20
2019-04-26T11:09:04.941Z,0.40
2019-04-26T11:11:33.748Z,0.40
2019-04-26T11:14:01.187Z,0.60
2019-04-26T11:16:28.466Z,0.30
2019-04-26T11:18:57.208Z,0.20
2019-04-26T11:21:25.961Z,0.40
2019-04-26T11:23:53.156Z,0.20
2019-04-26T11:26:20.504Z,0.40
2019-04-26T11:28:51.287Z,0.30
2019-04-26T11:31:17.016Z,0.40
2019-04-26T11:33:45.206Z,0.50
2019-04-26T11:36:14.544Z,0.40
2019-04-26T11:38:41.793Z,0.30
2019-04-26T11:41:09.393Z,0.30
2019-04-26T11:43:36.648Z,0.23
2019-04-26T11:46:04.953Z,0.40
2019-04-26T11:48:32.245Z,0.30
2019-04-26T11:50:59.627Z,0.30
2019-04-26T11:53:27.232Z,0.50
2019-04-26T11:55:54.411Z,0.43
2019-04-26T11:58:22.547Z,0.63
2019-04-26T12:00:55.868Z,0.67
2019-04-26T12:03:24.955Z,0.40
2019-04-26T12:06:13.424Z,0.40
2019-04-26T12:08:46.766Z,0.50
2019-04-26T12:11:18.459Z,0.30
2019-04-26T12:13:44.217Z,0.27
2019-04-26T12:16:14.709Z,0.30
2019-04-26T12:18:44.229Z,0.30
2019-04-26T12:21:11.091Z,0.30
2019-04-26T12:23:38.446Z,0.40
2019-04-26T12:26:05.770Z,0.40
2019-04-26T12:28:36.233Z,0.30
2019-04-26T12:31:02.466Z,0.20
2019-04-26T12:33:29.649Z,0.20
2019-04-26T12:35:57.448Z,0.10
2019-04-26T12:38:28.462Z,0.20
2019-04-26T12:40:54.436Z,0.20
2019-04-26T12:43:24.610Z,0.63
2019-04-26T12:46:08.705Z,0.40
2019-04-26T12:48:36.087Z,0.20
2019-04-26T12:51:03.402Z,0.37
2019-04-26T12:53:31.549Z,0.40
2019-04-26T12:55:59.948Z,0.40
2019-04-26T12:58:27.237Z,0.40
2019-04-26T13:00:54.726Z,0.27
2019-04-26T13:03:24.919Z,0.30
2019-04-26T13:05:57.632Z,0.30
2019-04-26T13:08:20.559Z,0.20
2019-04-26T13:11:07.430Z,0.20
2019-04-26T13:13:43.657Z,0.10
2019-04-26T13:16:36.249Z,0.20
2019-04-26T13:19:03.742Z,0.20
2019-04-26T13:21:33.140Z,0.30
2019-04-26T13:24:04.323Z,0.20
2019-04-26T13:26:34.892Z,0.23
2019-04-26T13:28:59.882Z,0.30
2019-04-26T13:31:31.719Z,0.33
2019-04-26T13:33:58.315Z,0.33
2019-04-26T13:36:29.134Z,0.60
2019-04-26T13:38:56.346Z,0.40
2019-04-26T13:41:23.681Z,0.30
2019-04-26T13:43:51.011Z,0.50
2019-04-26T13:46:31.490Z,0.60
2019-04-26T13:49:14.327Z,0.57
2019-04-26T13:51:42.242Z,0.70
2019-04-26T13:54:09.526Z,0.40
2019-04-26T13:56:37.578Z,0.67
2019-04-26T13:59:05.328Z,0.50
2019-04-26T14:01:32.879Z,0.43
2019-04-26T14:04:02.452Z,0.40
2019-04-26T14:06:29.654Z,0.40
2019-04-26T14:08:58.128Z,0.37
2019-04-26T14:11:29.384Z,0.50
2019-04-26T14:13:55.545Z,0.60
2019-04-26T14:16:27.419Z,0.70
2019-04-26T14:18:53.746Z,0.40
2019-04-26T14:21:21.120Z,0.60
2019-04-26T14:24:06.249Z,0.40
2019-04-26T14:26:39.841Z,0.50
2019-04-26T14:29:05.696Z,0.40
2019-04-26T14:31:33.072Z,0.50
2019-04-26T14:34:01.191Z,0.60
2019-04-26T14:36:29.457Z,0.73
2019-04-26T14:39:05.614Z,0.60
2019-04-26T14:41:26.136Z,0.50
2019-04-26T14:43:56.706Z,0.80
2019-04-26T14:46:23.075Z,0.60
2019-04-26T14:49:01.012Z,0.70
2019-04-26T14:51:19.977Z,0.67
2019-04-26T14:53:47.433Z,0.67
2019-04-26T14:56:14.830Z,0.53
2019-04-26T14:58:42.344Z,0.90
2019-04-26T15:01:15.248Z,0.70
2019-04-26T15:04:00.801Z,0.50
2019-04-26T15:06:32.220Z,0.37
2019-04-26T15:08:59.676Z,0.50
2019-04-26T15:11:27.031Z,2.03
2019-04-26T15:13:54.492Z,0.60
2019-04-26T15:16:22.704Z,0.60
2019-04-26T15:18:52.560Z,0.60
2019-04-26T15:21:19.849Z,1.20
2019-04-26T15:23:47.072Z,0.90
2019-04-26T15:26:14.283Z,0.70
2019-04-26T15:28:43.710Z,0.60
2019-04-26T15:31:10.826Z,0.90
2019-04-26T15:33:38.044Z,0.77
2019-04-26T15:36:06.276Z,0.60
2019-04-26T15:38:40.934Z,0.80
2019-04-26T15:41:23.407Z,0.90
2019-04-26T15:44:02.612Z,1.67
2019-04-26T15:46:42.622Z,0.60
2019-04-26T15:49:17.198Z,0.80
2019-04-26T15:51:44.400Z,1.07
2019-04-26T15:54:11.794Z,0.67
2019-04-26T15:56:39.164Z,0.87
2019-04-26T15:59:06.657Z,0.90
2019-04-26T16:01:34.317Z,1.03
2019-04-26T16:04:05.770Z,0.90
2019-04-26T16:06:32.207Z,1.00
2019-04-26T16:08:59.685Z,0.90
2019-04-26T16:11:26.990Z,0.67
2019-04-26T16:13:55.569Z,1.10
2019-04-26T16:16:27.844Z,1.00
2019-04-26T16:18:55.524Z,1.00
2019-04-26T16:21:22.048Z,0.97
2019-04-26T16:23:54.091Z,1.00
2019-04-26T16:26:18.802Z,1.37
2019-04-26T16:29:05.650Z,1.23
2019-04-26T16:31:55.199Z,0.60
2019-04-26T16:34:23.387Z,0.83
2019-04-26T16:36:52.470Z,0.73
2019-04-26T16:39:20.041Z,0.70
2019-04-26T16:41:47.363Z,0.60
2019-04-26T16:44:14.749Z,0.97
2019-04-26T16:46:43.910Z,1.20
2019-04-26T16:49:13.606Z,0.70
2019-04-26T16:51:40.917Z,1.90
2019-04-26T16:54:10.852Z,1.00
2019-04-26T16:56:37.207Z,1.10
2019-04-26T16:59:04.568Z,7.67
2019-04-26T17:01:33.401Z,9.57
2019-04-26T17:04:00.606Z,2.50
2019-04-26T17:06:27.973Z,3.20
2019-04-26T17:09:01.008Z,4.50
2019-04-26T17:11:24.624Z,1.80
2019-04-26T17:13:56.584Z,1.60
2019-04-26T17:16:22.432Z,1.90
2019-04-26T17:18:50.741Z,1.40
2019-04-26T17:21:22.289Z,2.00
2019-04-26T17:24:08.600Z,1.23
2019-04-26T17:26:37.815Z,1.63
2019-04-26T17:29:05.212Z,1.50
2019-04-26T17:31:33.605Z,1.40
2019-04-26T17:34:01.439Z,1.10
2019-04-26T17:36:28.697Z,1.20
2019-04-26T17:38:55.934Z,1.40
2019-04-26T17:41:23.120Z,1.33
2019-04-26T17:43:55.963Z,2.60
2019-04-26T17:46:21.468Z,3.00
2019-04-26T17:48:49.384Z,1.70
2019-04-26T17:51:19.180Z,1.77
2019-04-26T17:53:48.098Z,1.17
2019-04-26T17:56:16.229Z,1.50
2019-04-26T17:58:52.361Z,1.20
2019-04-26T18:01:33.303Z,1.17
2019-04-26T18:03:50.807Z,0.90
2019-04-26T18:06:13.976Z,1.13
2019-04-26T18:08:51.195Z,0.80
2019-04-26T18:11:18.900Z,1.13
2019-04-26T18:13:39.844Z,3.33
2019-04-26T18:16:07.193Z,3.10
2019-04-26T18:18:55.797Z,3.40
2019-04-26T18:21:38.868Z,3.57
2019-04-26T18:24:06.254Z,3.80
2019-04-26T18:26:33.663Z,2.53
2019-04-26T18:29:00.890Z,2.00
2019-04-26T18:31:29.053Z,1.87
2019-04-26T18:34:00.843Z,1.77
2019-04-26T18:36:27.584Z,1.87
2019-04-26T18:38:56.025Z,1.83
2019-04-26T18:41:28.752Z,2.47
2019-04-26T18:43:54.151Z,1.70
2019-04-26T18:46:28.488Z,2.20
2019-04-26T18:48:55.998Z,3.17
2019-04-26T18:54:32.866Z,1.60
2019-04-26T18:57:03.074Z,1.37
2019-04-26T18:59:30.445Z,4.53
2019-04-26T19:01:57.978Z,1.73
2019-04-26T19:04:25.411Z,1.80
2019-04-26T19:06:52.910Z,1.93
2019-04-26T19:09:24.032Z,1.77
2019-04-26T19:11:52.854Z,2.87
2019-04-26T19:14:49.522Z,1.80
2019-04-26T19:17:17.171Z,1.70
2019-04-26T19:20:02.764Z,2.00
2019-04-26T19:22:32.193Z,2.10
2019-04-26T19:25:02.047Z,2.63
2019-04-26T19:27:29.895Z,4.97
2019-04-26T19:29:57.297Z,3.00
2019-04-26T19:32:24.892Z,3.60
2019-04-26T19:34:52.689Z,5.87
2019-04-26T19:37:23.065Z,3.40
2019-04-26T19:39:49.848Z,2.67
2019-04-26T19:42:17.366Z,3.37
2019-04-26T19:44:44.983Z,2.40
2019-04-26T19:47:23.100Z,2.50
2019-04-26T19:50:09.782Z,2.67
2019-04-26T19:52:56.301Z,2.93
2019-04-26T19:55:47.333Z,2.70
2019-04-26T19:58:20.088Z,2.63
2019-04-26T20:00:46.780Z,2.27
2019-04-26T20:03:16.846Z,1.93
2019-04-26T20:05:45.207Z,2.33
2019-04-26T20:08:29.316Z,2.40
2019-04-26T20:10:56.752Z,2.47
2019-04-26T20:13:24.191Z,2.20
2019-04-26T20:16:04.739Z,2.33
2019-04-26T20:18:42.297Z,2.93
2019-04-26T20:21:15.075Z,3.07
2019-04-26T20:23:52.666Z,2.33
2019-04-26T20:26:22.737Z,1.77
2019-04-26T20:28:52.051Z,2.17
2019-04-26T20:31:44.897Z,2.90
2019-04-26T20:34:14.416Z,2.90
2019-04-26T20:36:47.129Z,2.30
2019-04-26T20:39:16.608Z,2.47
2019-04-26T20:42:00.500Z,2.50
2019-04-26T20:44:23.780Z,2.83
2019-04-26T20:47:03.422Z,2.67
2019-04-26T20:49:47.236Z,2.57
2019-04-26T20:52:04.639Z,2.27
2019-04-26T20:54:32.410Z,2.33
2019-04-26T20:57:09.828Z,1.97
2019-04-26T20:59:46.084Z,4.20
2019-04-26T21:02:16.359Z,5.77
2019-04-26T21:04:46.044Z,2.20
2019-04-26T21:07:14.102Z,3.57
2019-04-26T21:09:47.095Z,1.90
2019-04-26T21:12:18.346Z,2.10
2019-04-26T21:14:45.683Z,2.20
2019-04-26T21:17:13.594Z,2.10
2019-04-26T21:19:41.733Z,2.10
2019-04-26T21:22:10.531Z,2.33
2019-04-26T21:24:55.394Z,2.40
2019-04-26T21:27:42.970Z,2.33
2019-04-26T21:30:29.533Z,2.03
2019-04-26T21:33:03.041Z,2.30
2019-04-26T21:35:46.444Z,2.20
2019-04-26T21:38:29.646Z,2.13
2019-04-26T21:41:11.153Z,1.77
2019-04-26T21:43:38.189Z,1.90
2019-04-26T21:46:14.202Z,2.10
2019-04-26T21:48:41.285Z,4.30
2019-04-26T21:51:08.447Z,2.10
2019-04-26T21:53:38.265Z,2.80
2019-04-26T21:56:11.530Z,2.30
2019-04-26T21:58:37.280Z,3.30
2019-04-26T22:01:19.245Z,4.63
2019-04-26T22:03:58.365Z,3.10
2019-04-26T22:06:28.741Z,2.27
2019-04-26T22:09:04.754Z,2.57
2019-04-26T22:11:38.082Z,2.70
2019-04-26T22:14:20.261Z,2.80
2019-04-26T22:17:09.379Z,3.27
2019-04-26T22:19:47.551Z,3.30
2019-04-26T22:22:23.273Z,2.93
2019-04-26T22:24:51.206Z,3.47
2019-04-26T22:27:25.408Z,3.30
2019-04-26T22:29:52.750Z,3.43
2019-04-26T22:32:23.406Z,3.50
2019-04-26T22:34:50.724Z,3.67
2019-04-26T22:37:29.068Z,3.67
2019-04-26T22:39:47.502Z,4.47
2019-04-26T22:42:15.132Z,4.90
2019-04-26T22:45:10.535Z,4.03
2019-04-26T22:47:46.597Z,4.20
2019-04-26T22:50:20.943Z,4.00
2019-04-26T22:52:46.684Z,4.07
2019-04-26T22:55:15.890Z,4.50
2019-04-26T22:57:45.308Z,4.20
2019-04-26T23:00:25.567Z,4.00
2019-04-26T23:02:58.003Z,4.30
2019-04-26T23:05:26.180Z,4.10
2019-04-26T23:08:00.774Z,4.67
2019-04-26T23:10:34.124Z,4.47
2019-04-26T23:13:08.184Z,4.43
2019-04-26T23:15:44.610Z,4.60
2019-04-26T23:18:38.739Z,4.47
2019-04-26T23:21:17.376Z,4.23
2019-04-26T23:23:44.632Z,4.17
2019-04-26T23:26:12.913Z,4.17
2019-04-26T23:28:47.526Z,4.73
2019-04-26T23:31:18.823Z,4.07
2019-04-26T23:33:46.254Z,5.37
2019-04-26T23:36:18.413Z,4.63
2019-04-26T23:38:45.880Z,4.20
2019-04-26T23:41:14.190Z,4.83
2019-04-26T23:43:46.982Z,5.13
2019-04-26T23:46:14.741Z,4.30
2019-04-26T23:48:48.837Z,4.40
2019-04-26T23:51:14.246Z,4.20
2019-04-26T23:53:42.885Z,4.10
2019-04-26T23:56:16.265Z,4.60
2019-04-26T23:58:45.777Z,4.90
